createdAt,value
2022-09-17T00:00:53.542Z,101051.97
2022-09-17T00:03:21.567Z,101055.03
2022-09-17T00:05:49.443Z,101053.16
2022-09-17T00:08:17.385Z,101055.81
2022-09-17T00:10:45.865Z,101053.16
2022-09-17T00:13:13.888Z,101050.66
2022-09-17T00:15:43.203Z,101042.78
2022-09-17T00:18:11.441Z,101041.28
2022-09-17T00:20:40.760Z,101044.44
2022-09-17T00:23:09.545Z,101047.97
2022-09-17T00:25:42.024Z,101056.09
2022-09-17T00:28:10.200Z,101041.41
2022-09-17T00:30:40.559Z,101048.56
2022-09-17T00:33:08.583Z,101049.22
2022-09-17T00:35:36.582Z,101055.91
2022-09-17T00:38:04.585Z,101045.34
2022-09-17T00:40:33.101Z,101039.38
2022-09-17T00:43:01.065Z,101042.25
2022-09-17T00:45:29.541Z,101040.66
2022-09-17T00:48:05.320Z,101048.13
2022-09-17T00:50:36.267Z,101049.56
2022-09-17T00:53:07.307Z,101051.19
2022-09-17T00:55:39.460Z,101044.19
2022-09-17T00:58:09.229Z,101042.06
2022-09-17T01:00:38.237Z,101041.75
2022-09-17T01:03:06.679Z,101042.09
2022-09-17T01:05:43.643Z,101056.53
2022-09-17T01:08:30.835Z,101055.75
2022-09-17T01:11:04.720Z,101058.31
2022-09-17T01:13:53.219Z,101055.91
2022-09-17T01:16:27.561Z,101058.69
2022-09-17T01:18:55.466Z,101054.03
2022-09-17T01:21:26.449Z,101065.69
2022-09-17T01:24:06.354Z,101066.59
2022-09-17T01:26:53.034Z,101061.06
2022-09-17T01:29:20.919Z,101064.03
2022-09-17T01:31:55.326Z,101064.34
2022-09-17T01:34:32.900Z,101066.66
2022-09-17T01:37:04.913Z,101059.19
2022-09-17T01:39:39.145Z,101065.06
2022-09-17T01:42:10.825Z,101075.34
2022-09-17T01:44:42.655Z,101073.91
2022-09-17T01:47:15.713Z,101086.91
2022-09-17T01:49:45.840Z,101085.78
2022-09-17T01:52:16.400Z,101077.53
2022-09-17T01:54:50.185Z,101085.06
2022-09-17T01:57:26.985Z,101081.75
2022-09-17T02:00:13.065Z,101079.03
2022-09-17T02:02:46.777Z,101087.41
2022-09-17T02:05:21.385Z,101094.88
2022-09-17T02:08:12.283Z,101094.47
2022-09-17T02:10:43.447Z,101096.16
2022-09-17T02:13:32.441Z,101095.66
2022-09-17T02:16:09.117Z,101088.84
2022-09-17T02:18:44.300Z,101093.41
2022-09-17T02:21:21.542Z,101080.16
2022-09-17T02:23:54.612Z,101081.91
2022-09-17T02:26:24.013Z,101090.03
2022-09-17T02:28:56.279Z,101087.44
2022-09-17T02:31:24.299Z,101093.16
2022-09-17T02:33:55.144Z,101089.97
2022-09-17T02:36:24.840Z,101092.75
2022-09-17T02:38:56.898Z,101086.59
2022-09-17T02:41:27.620Z,101088.78
2022-09-17T02:44:33.719Z,101093.81
2022-09-17T02:47:01.704Z,101090.88
2022-09-17T02:49:51.085Z,101087.59
2022-09-17T02:52:27.784Z,101082.56
2022-09-17T02:55:07.880Z,101092.69
2022-09-17T02:57:47.944Z,101096.69
2022-09-17T03:00:18.359Z,101095.47
2022-09-17T03:02:48.469Z,101097.72
2022-09-17T03:05:18.825Z,101102.22
2022-09-17T03:07:46.784Z,101110.47
2022-09-17T03:10:14.829Z,101112.34
2022-09-17T03:12:42.986Z,101107.25
2022-09-17T03:15:11.423Z,101125.41
2022-09-17T03:17:39.344Z,101117.84
2022-09-17T03:20:07.627Z,101121.59
2022-09-17T03:22:36.718Z,101130.56
2022-09-17T03:25:04.720Z,101120.97
2022-09-17T03:27:35.159Z,101135.63
2022-09-17T03:30:03.124Z,101132.16
2022-09-17T03:32:31.121Z,101139.44
2022-09-17T03:34:59.099Z,101136.75
2022-09-17T03:37:29.863Z,101142.19
2022-09-17T03:40:00.356Z,101148.59
2022-09-17T03:42:28.582Z,101145.19
2022-09-17T03:44:56.584Z,101150.47
2022-09-17T03:47:24.442Z,101149.75
2022-09-17T03:49:53.239Z,101156.16
2022-09-17T03:52:21.520Z,101152.84
2022-09-17T03:54:50.031Z,101155.75
2022-09-17T03:57:17.930Z,101150.63
2022-09-17T03:59:45.864Z,101161.44
2022-09-17T04:02:13.997Z,101152.59
2022-09-17T04:04:42.040Z,101152.78
2022-09-17T04:07:09.998Z,101146.63
2022-09-17T04:09:37.865Z,101150.09
2022-09-17T04:12:05.819Z,101149.28
2022-09-17T04:14:33.715Z,101147.72
2022-09-17T04:17:01.998Z,101146.75
2022-09-17T04:19:30.022Z,101152.19
2022-09-17T04:21:57.925Z,101149.38
2022-09-17T04:24:25.819Z,101146.53
2022-09-17T04:26:53.702Z,101149.38
2022-09-17T04:29:21.663Z,101152.06
2022-09-17T04:31:49.545Z,101144.88
2022-09-17T04:34:17.389Z,101147.66
2022-09-17T04:36:45.261Z,101137.94
2022-09-17T04:39:13.220Z,101145.13
2022-09-17T04:41:41.559Z,101140.72
2022-09-17T04:44:09.455Z,101138.81
2022-09-17T04:46:37.362Z,101137.94
2022-09-17T04:49:05.550Z,101135.41
2022-09-17T04:51:33.540Z,101132.91
2022-09-17T04:54:01.552Z,101131.97
2022-09-17T04:56:29.445Z,101130.22
2022-09-17T04:58:57.385Z,101134.72
2022-09-17T05:01:25.302Z,101136.59
2022-09-17T05:03:53.379Z,101132.19
2022-09-17T05:06:21.259Z,101137.63
2022-09-17T05:08:49.222Z,101129.75
2022-09-17T05:11:17.078Z,101125.38
2022-09-17T05:13:45.000Z,101133.56
2022-09-17T05:16:12.969Z,101128.38
2022-09-17T05:18:40.904Z,101126.56
2022-09-17T05:21:08.809Z,101121.19
2022-09-17T05:23:36.720Z,101119.63
2022-09-17T05:26:04.593Z,101122.28
2022-09-17T05:28:32.448Z,101119.69
2022-09-17T05:31:00.936Z,101105.53
2022-09-17T05:33:29.363Z,101124.28
2022-09-17T05:35:57.224Z,101124.28
2022-09-17T05:38:25.394Z,101114.56
2022-09-17T05:40:53.425Z,101114.66
2022-09-17T05:43:21.550Z,101113.94
2022-09-17T05:45:49.545Z,101106.16
2022-09-17T05:48:18.319Z,101108.09
2022-09-17T05:50:46.250Z,101102.81
2022-09-17T05:53:15.143Z,101100.25
2022-09-17T05:55:43.624Z,101098.56
2022-09-17T05:58:12.862Z,101091.63
2022-09-17T06:00:42.186Z,101090.00
2022-09-17T06:03:13.915Z,101092.72
2022-09-17T06:05:42.300Z,101095.56
2022-09-17T06:08:10.827Z,101091.16
2022-09-17T06:10:39.465Z,101091.31
2022-09-17T06:13:07.418Z,101087.03
2022-09-17T06:15:35.624Z,101079.16
2022-09-17T06:18:03.631Z,101078.28
2022-09-17T06:20:31.548Z,101074.84
2022-09-17T06:22:59.925Z,101077.66
2022-09-17T06:25:27.918Z,101079.63
2022-09-17T06:27:55.785Z,101073.63
2022-09-17T06:30:23.740Z,101067.63
2022-09-17T06:32:52.264Z,101069.81
2022-09-17T06:35:20.472Z,101067.38
2022-09-17T06:37:48.532Z,101059.41
2022-09-17T06:40:16.502Z,101054.22
2022-09-17T06:42:44.394Z,101046.44
2022-09-17T06:45:16.368Z,101046.59
2022-09-17T06:47:44.739Z,101054.63
2022-09-17T06:50:12.879Z,101055.56
2022-09-17T06:52:40.900Z,101049.53
2022-09-17T06:55:09.070Z,101045.34
2022-09-17T06:57:36.904Z,101047.25
2022-09-17T07:00:05.384Z,101043.94
2022-09-17T07:02:33.404Z,101040.59
2022-09-17T07:05:01.365Z,101035.59
2022-09-17T07:07:29.935Z,101034.97
2022-09-17T07:09:57.864Z,101035.94
2022-09-17T07:12:25.838Z,101032.50
2022-09-17T07:14:53.819Z,101023.69
2022-09-17T07:17:22.300Z,101028.31
2022-09-17T07:19:50.299Z,101031.06
2022-09-17T07:22:18.199Z,101022.31
2022-09-17T07:24:46.181Z,101017.97
2022-09-17T07:27:14.710Z,101015.28
2022-09-17T07:29:42.660Z,101017.19
2022-09-17T07:32:10.660Z,101010.31
2022-09-17T07:34:38.680Z,101011.53
2022-09-17T07:37:06.665Z,101024.09
2022-09-17T07:39:34.556Z,101009.06
2022-09-17T07:42:02.503Z,101003.88
2022-09-17T07:44:30.500Z,100999.41
2022-09-17T07:46:58.502Z,101004.78
2022-09-17T07:49:26.830Z,101002.28
2022-09-17T07:51:55.948Z,101010.50
2022-09-17T07:54:24.019Z,101008.88
2022-09-17T07:56:51.953Z,100999.28
2022-09-17T07:59:20.585Z,101002.06
2022-09-17T08:01:49.355Z,100993.28
2022-09-17T08:04:17.519Z,100994.25
2022-09-17T08:06:49.362Z,100990.97
2022-09-17T08:09:18.822Z,100990.25
2022-09-17T08:12:01.883Z,100987.56
2022-09-17T08:14:30.186Z,100970.69
2022-09-17T08:16:58.507Z,100969.84
2022-09-17T08:19:26.505Z,100973.44
2022-09-17T08:21:54.824Z,100962.81
2022-09-17T08:24:22.820Z,100962.91
2022-09-17T08:26:50.800Z,100965.66
2022-09-17T08:29:18.824Z,100959.44
2022-09-17T08:31:46.757Z,100959.56
2022-09-17T08:34:14.985Z,100959.75
2022-09-17T08:36:42.981Z,100954.44
2022-09-17T08:39:13.064Z,100956.16
2022-09-17T08:42:04.265Z,100953.78
2022-09-17T08:44:35.055Z,100952.16
2022-09-17T08:47:07.144Z,100950.63
2022-09-17T08:49:43.117Z,100948.03
2022-09-17T08:52:11.100Z,100946.28
2022-09-17T08:54:54.159Z,100951.78
2022-09-17T08:57:28.270Z,100951.88
2022-09-17T08:59:59.299Z,100943.97
2022-09-17T09:02:37.471Z,100947.50
2022-09-17T09:05:16.720Z,100950.25
2022-09-17T09:07:48.120Z,100954.63
2022-09-17T09:10:25.385Z,100946.63
2022-09-17T09:12:54.159Z,100951.78
2022-09-17T09:15:22.345Z,100951.84
2022-09-17T09:17:52.104Z,100946.56
2022-09-17T09:20:40.105Z,100950.16
2022-09-17T09:23:19.099Z,100945.78
2022-09-17T09:25:53.574Z,100937.81
2022-09-17T09:28:21.502Z,100942.28
2022-09-17T09:31:14.870Z,100944.91
2022-09-17T09:33:47.689Z,100953.81
2022-09-17T09:36:17.065Z,100942.44
2022-09-17T09:38:48.175Z,100944.28
2022-09-17T09:41:21.383Z,100944.28
2022-09-17T09:44:03.781Z,100937.34
2022-09-17T09:46:41.416Z,100936.56
2022-09-17T09:49:17.999Z,100934.00
2022-09-17T09:51:50.980Z,100939.50
2022-09-17T09:54:19.465Z,100932.47
2022-09-17T09:56:50.499Z,100927.25
2022-09-17T09:59:19.920Z,100924.59
2022-09-17T10:01:48.082Z,100922.88
2022-09-17T10:04:24.101Z,100929.22
2022-09-17T10:07:11.303Z,100918.66
2022-09-17T10:09:40.580Z,100916.13
2022-09-17T10:12:14.500Z,100921.59
2022-09-17T10:14:43.720Z,100921.72
2022-09-17T10:17:14.075Z,100925.31
2022-09-17T10:19:42.824Z,100921.91
2022-09-17T10:22:28.925Z,100913.03
2022-09-17T10:24:58.344Z,100914.78
2022-09-17T10:27:27.304Z,100915.72
2022-09-17T10:30:10.509Z,100913.16
2022-09-17T10:32:38.398Z,100920.25
2022-09-17T10:35:08.239Z,100922.06
2022-09-17T10:37:36.266Z,100907.72
2022-09-17T10:40:24.161Z,100906.66
2022-09-17T10:43:11.949Z,100905.66
2022-09-17T10:45:42.481Z,100908.13
2022-09-17T10:48:17.169Z,100906.28
2022-09-17T10:50:49.839Z,100907.88
2022-09-17T10:53:18.659Z,100909.53
2022-09-17T10:56:04.902Z,100908.59
2022-09-17T10:58:33.879Z,100905.91
2022-09-17T11:01:08.579Z,100910.38
2022-09-17T11:03:50.340Z,100911.22
2022-09-17T11:06:44.583Z,100911.16
2022-09-17T11:09:27.945Z,100912.00
2022-09-17T11:11:58.665Z,100912.94
2022-09-17T11:14:39.145Z,100908.56
2022-09-17T11:17:12.714Z,100908.56
2022-09-17T11:19:49.524Z,100900.69
2022-09-17T11:22:24.265Z,100909.53
2022-09-17T11:25:07.303Z,100907.69
2022-09-17T11:27:35.150Z,100911.22
2022-09-17T11:30:10.343Z,100907.75
2022-09-17T11:32:38.303Z,100904.22
2022-09-17T11:35:11.150Z,100905.03
2022-09-17T11:37:49.977Z,100907.63
2022-09-17T11:40:26.859Z,100902.28
2022-09-17T11:43:04.742Z,100900.56
2022-09-17T11:45:39.465Z,100903.22
2022-09-17T11:48:25.228Z,100905.91
2022-09-17T11:50:53.222Z,100900.75
2022-09-17T11:53:24.744Z,100900.84
2022-09-17T11:55:55.925Z,100895.50
2022-09-17T11:58:42.462Z,100899.16
2022-09-17T12:01:12.747Z,100895.75
2022-09-17T12:03:44.862Z,100890.56
2022-09-17T12:06:17.864Z,100895.25
2022-09-17T12:08:52.750Z,100899.72
2022-09-17T12:11:23.630Z,100896.28
2022-09-17T12:13:57.185Z,100896.38
2022-09-17T12:16:29.911Z,100892.97
2022-09-17T12:19:08.759Z,100887.78
2022-09-17T12:21:45.544Z,100889.72
2022-09-17T12:24:43.294Z,100885.31
2022-09-17T12:27:23.207Z,100893.16
2022-09-17T12:30:03.314Z,100890.56
2022-09-17T12:32:49.735Z,100892.25
2022-09-17T12:35:17.666Z,100885.13
2022-09-17T12:38:14.489Z,100890.47
2022-09-17T12:40:42.501Z,100890.56
2022-09-17T12:43:13.579Z,100895.97
2022-09-17T12:45:50.744Z,100889.81
2022-09-17T12:48:39.619Z,100895.22
2022-09-17T12:51:30.350Z,100889.97
2022-09-17T12:54:07.604Z,100888.31
2022-09-17T12:56:35.434Z,100900.81
2022-09-17T12:59:06.481Z,100900.03
2022-09-17T13:01:34.380Z,100898.34
2022-09-17T13:04:38.108Z,100905.53
2022-09-17T13:07:20.269Z,100911.84
2022-09-17T13:09:54.270Z,100908.38
2022-09-17T13:12:38.478Z,100906.66
2022-09-17T13:15:24.837Z,100906.66
2022-09-17T13:18:26.085Z,100905.78
2022-09-17T13:21:17.704Z,100909.34
2022-09-17T13:23:50.508Z,100916.63
2022-09-17T13:26:22.679Z,100922.84
2022-09-17T13:28:53.681Z,100917.66
2022-09-17T13:31:23.802Z,100915.09
2022-09-17T13:33:59.849Z,100917.00
2022-09-17T13:36:46.504Z,100914.44
2022-09-17T13:39:32.934Z,100913.63
2022-09-17T13:42:02.983Z,100915.59
2022-09-17T13:44:30.988Z,100917.34
2022-09-17T13:47:10.665Z,100918.28
2022-09-17T13:49:44.815Z,100921.78
2022-09-17T13:52:12.905Z,100917.38
2022-09-17T13:54:41.080Z,100925.50
2022-09-17T13:57:16.103Z,100924.63
2022-09-17T13:59:54.664Z,100924.75
2022-09-17T14:02:30.080Z,100927.47
2022-09-17T14:05:18.997Z,100916.84
2022-09-17T14:07:48.439Z,100917.75
2022-09-17T14:10:16.340Z,100921.22
2022-09-17T14:12:44.265Z,100927.31
2022-09-17T14:15:38.210Z,100928.25
2022-09-17T14:18:24.582Z,100933.53
2022-09-17T14:20:54.346Z,100930.06
2022-09-17T14:23:22.502Z,100943.38
2022-09-17T14:25:53.547Z,100941.56
2022-09-17T14:28:34.504Z,100939.78
2022-09-17T14:31:04.195Z,100936.19
2022-09-17T14:33:33.176Z,100950.31
2022-09-17T14:36:10.516Z,100945.69
2022-09-17T14:38:39.464Z,100949.81
2022-09-17T14:41:13.549Z,100957.63
2022-09-17T14:43:57.379Z,100947.72
2022-09-17T14:46:25.250Z,100950.97
2022-09-17T14:48:53.169Z,100949.88
2022-09-17T14:51:21.065Z,100947.09
2022-09-17T14:54:15.479Z,100949.50
2022-09-17T14:56:47.690Z,100953.63
2022-09-17T14:59:35.737Z,100955.97
2022-09-17T15:02:03.951Z,100946.81
2022-09-17T15:04:31.944Z,100956.28
2022-09-17T15:07:07.960Z,100950.66
2022-09-17T15:09:35.940Z,100944.16
2022-09-17T15:12:05.041Z,100943.75
2022-09-17T15:14:39.259Z,100939.78
2022-09-17T15:17:09.880Z,100943.78
2022-09-17T15:19:40.061Z,100940.72
2022-09-17T15:22:28.106Z,100941.22
2022-09-17T15:25:25.039Z,100932.81
2022-09-17T15:27:56.268Z,100931.34
2022-09-17T15:30:25.414Z,100928.28
2022-09-17T15:32:59.960Z,100931.41
2022-09-17T15:35:31.641Z,100931.00
2022-09-17T15:38:21.737Z,100922.47
2022-09-17T15:40:49.519Z,100925.66
2022-09-17T15:43:23.638Z,100923.50
2022-09-17T15:45:51.725Z,100932.06
2022-09-17T15:48:28.900Z,100927.38
2022-09-17T15:50:57.868Z,100918.16
2022-09-17T15:53:27.622Z,100916.84
2022-09-17T15:56:12.121Z,100919.06
2022-09-17T15:58:40.109Z,100918.69
2022-09-17T16:01:17.155Z,100917.50
2022-09-17T16:03:45.389Z,100916.22
2022-09-17T16:06:19.761Z,100919.38
2022-09-17T16:08:52.598Z,100909.22
2022-09-17T16:11:24.751Z,100910.81
2022-09-17T16:13:54.320Z,100903.28
2022-09-17T16:16:24.052Z,100910.03
2022-09-17T16:18:52.098Z,100906.09
2022-09-17T16:21:21.198Z,100909.25
2022-09-17T16:23:49.064Z,100910.72
2022-09-17T16:26:19.413Z,100920.34
2022-09-17T16:28:49.287Z,100916.63
2022-09-17T16:31:17.478Z,100911.88
2022-09-17T16:33:45.519Z,100909.81
2022-09-17T16:36:13.370Z,100921.00
2022-09-17T16:38:41.705Z,100917.84
2022-09-17T16:41:09.706Z,100916.53
2022-09-17T16:43:39.465Z,100915.47
2022-09-17T16:46:11.783Z,100923.25
2022-09-17T16:48:39.900Z,100923.81
2022-09-17T16:51:11.219Z,100925.19
2022-09-17T16:53:39.307Z,100930.38
2022-09-17T16:56:08.381Z,100918.31
2022-09-17T16:58:36.325Z,100917.78
2022-09-17T17:01:17.268Z,100918.13
2022-09-17T17:03:46.830Z,100925.56
2022-09-17T17:06:18.345Z,100918.13
2022-09-17T17:08:46.313Z,100909.81
2022-09-17T17:11:14.665Z,100914.50
2022-09-17T17:13:46.000Z,100907.72
2022-09-17T17:16:15.094Z,100902.91
2022-09-17T17:18:46.200Z,100908.78
2022-09-17T17:21:14.984Z,100911.09
2022-09-17T17:23:45.679Z,100909.88
2022-09-17T17:26:13.548Z,100904.16
2022-09-17T17:28:41.605Z,100909.06
2022-09-17T17:31:09.766Z,100905.91
2022-09-17T17:33:37.878Z,100909.00
2022-09-17T17:36:08.349Z,100901.53
2022-09-17T17:38:37.222Z,100903.84
2022-09-17T17:41:10.000Z,100898.00
2022-09-17T17:43:38.189Z,100895.03
2022-09-17T17:46:13.294Z,100900.75
2022-09-17T17:48:41.235Z,100898.09
2022-09-17T17:51:10.499Z,100890.91
2022-09-17T17:53:38.818Z,100885.84
2022-09-17T17:56:07.974Z,100891.16
2022-09-17T17:58:36.426Z,100882.22
2022-09-17T18:01:15.644Z,100881.94
2022-09-17T18:03:43.947Z,100876.47
2022-09-17T18:06:12.339Z,100874.16
2022-09-17T18:08:41.386Z,100872.41
2022-09-17T18:11:10.509Z,100870.63
2022-09-17T18:13:39.144Z,100868.13
2022-09-17T18:16:08.616Z,100881.03
2022-09-17T18:18:43.564Z,100866.38
2022-09-17T18:21:16.750Z,100867.81
2022-09-17T18:23:45.124Z,100869.03
2022-09-17T18:26:14.495Z,100871.84
2022-09-17T18:28:42.820Z,100867.03
2022-09-17T18:31:25.640Z,100864.13
2022-09-17T18:34:00.946Z,100861.22
2022-09-17T18:36:30.345Z,100858.13
2022-09-17T18:39:53.279Z,100846.63
2022-09-17T18:41:50.520Z,100846.53
2022-09-17T18:44:20.081Z,100846.00
2022-09-17T18:46:48.851Z,100842.56
2022-09-17T18:49:16.904Z,100846.47
2022-09-17T18:51:44.880Z,100847.22
2022-09-17T18:54:13.981Z,100842.38
2022-09-17T18:56:44.810Z,100825.75
2022-09-17T18:59:12.907Z,100827.06
2022-09-17T19:01:40.979Z,100829.41
2022-09-17T19:04:09.397Z,100819.34
2022-09-17T19:06:40.059Z,100821.25
2022-09-17T19:09:07.949Z,100814.41
2022-09-17T19:11:37.225Z,100808.81
2022-09-17T19:14:05.222Z,100816.16
2022-09-17T19:16:33.330Z,100806.81
2022-09-17T19:19:01.397Z,100811.94
2022-09-17T19:21:29.865Z,100799.19
2022-09-17T19:23:57.839Z,100802.88
2022-09-17T19:26:27.125Z,100802.41
2022-09-17T19:28:56.109Z,100795.03
2022-09-17T19:31:25.199Z,100798.63
2022-09-17T19:33:53.176Z,100795.66
2022-09-17T19:36:21.535Z,100799.28
2022-09-17T19:38:49.721Z,100789.31
2022-09-17T19:41:19.309Z,100787.03
2022-09-17T19:43:47.920Z,100781.88
2022-09-17T19:46:17.481Z,100786.19
2022-09-17T19:48:46.325Z,100789.72
2022-09-17T19:51:14.831Z,100789.09
2022-09-17T19:53:43.282Z,100783.97
2022-09-17T19:56:15.439Z,100788.13
2022-09-17T19:58:43.364Z,100782.72
2022-09-17T20:01:11.919Z,100779.41
2022-09-17T20:03:40.762Z,100781.75
2022-09-17T20:06:10.005Z,100780.47
2022-09-17T20:08:57.081Z,100778.19
2022-09-17T20:11:26.138Z,100773.88
2022-09-17T20:13:58.263Z,100769.06
2022-09-17T20:16:26.532Z,100774.44
2022-09-17T20:18:54.975Z,100769.31
2022-09-17T20:21:25.389Z,100773.69
2022-09-17T20:23:53.389Z,100779.31
2022-09-17T20:26:21.865Z,100775.50
2022-09-17T20:28:50.581Z,100776.25
2022-09-17T20:31:20.359Z,100776.63
2022-09-17T20:33:48.587Z,100775.50
2022-09-17T20:36:17.905Z,100756.31
2022-09-17T20:41:35.299Z,100755.16
2022-09-17T20:44:03.464Z,100760.69
2022-09-17T20:46:31.476Z,100750.09
2022-09-17T20:48:59.577Z,100749.31
2022-09-17T20:51:28.742Z,100750.78
2022-09-17T20:53:58.134Z,100741.19
2022-09-17T20:56:30.527Z,100749.91
2022-09-17T20:59:08.585Z,100748.28
2022-09-17T21:01:38.426Z,100749.00
2022-09-17T21:04:07.844Z,100747.13
2022-09-17T21:06:37.317Z,100742.38
2022-09-17T21:09:07.145Z,100743.94
2022-09-17T21:11:35.560Z,100732.53
2022-09-17T21:14:03.629Z,100732.13
2022-09-17T21:16:31.777Z,100737.09
2022-09-17T21:19:00.765Z,100734.78
2022-09-17T21:21:28.905Z,100729.00
2022-09-17T21:24:01.870Z,100726.81
2022-09-17T21:26:30.151Z,100734.56
2022-09-17T21:28:58.626Z,100723.69
2022-09-17T21:31:31.986Z,100733.94
2022-09-17T21:34:02.221Z,100732.09
2022-09-17T21:36:31.825Z,100726.56
2022-09-17T21:39:01.673Z,100726.69
2022-09-17T21:41:30.182Z,100732.16
2022-09-17T21:43:58.619Z,100719.03
2022-09-17T21:46:28.560Z,100717.63
2022-09-17T21:48:57.705Z,100711.50
2022-09-17T21:51:33.379Z,100713.78
2022-09-17T21:54:02.250Z,100721.66
2022-09-17T21:56:31.147Z,100717.78
2022-09-17T21:59:00.429Z,100714.63
2022-09-17T22:01:32.594Z,100713.94
2022-09-17T22:04:02.650Z,100701.91
2022-09-17T22:06:31.624Z,100685.59
2022-09-17T22:09:00.328Z,100683.75
2022-09-17T22:11:32.446Z,100694.16
2022-09-17T22:14:05.710Z,100686.81
2022-09-17T22:16:36.864Z,100676.81
2022-09-17T22:19:05.641Z,100677.25
2022-09-17T22:21:35.420Z,100672.66
2022-09-17T22:24:04.325Z,100669.25
2022-09-17T22:26:33.881Z,100661.41
2022-09-17T22:29:02.792Z,100655.97
2022-09-17T22:31:30.915Z,100660.81
2022-09-17T22:33:58.999Z,100649.84
2022-09-17T22:36:27.960Z,100657.66
2022-09-17T22:38:57.379Z,100657.97
2022-09-17T22:41:26.668Z,100653.69
2022-09-17T22:43:55.729Z,100650.97
2022-09-17T22:46:25.131Z,100645.09
2022-09-17T22:48:53.070Z,100638.63
2022-09-17T22:51:21.017Z,100632.16
2022-09-17T22:53:49.039Z,100640.69
2022-09-17T22:56:18.024Z,100631.31
2022-09-17T22:58:46.459Z,100621.22
2022-09-17T23:01:18.803Z,100623.53
2022-09-17T23:03:48.142Z,100624.09
2022-09-17T23:06:17.540Z,100616.84
2022-09-17T23:08:45.501Z,100618.16
2022-09-17T23:11:18.188Z,100612.88
2022-09-17T23:13:46.160Z,100615.34
2022-09-17T23:16:14.484Z,100622.50
2022-09-17T23:18:42.498Z,100623.28
2022-09-17T23:21:14.667Z,100611.91
2022-09-17T23:23:43.787Z,100605.50
2022-09-17T23:26:13.519Z,100605.72
2022-09-17T23:28:41.880Z,100601.19
2022-09-17T23:31:16.666Z,100601.09
2022-09-17T23:33:45.374Z,100608.19
2022-09-17T23:36:14.745Z,100600.94
2022-09-17T23:38:43.789Z,100594.56
2022-09-17T23:41:32.561Z,100602.66
2022-09-17T23:44:01.385Z,100600.81
2022-09-17T23:46:30.686Z,100591.88
2022-09-17T23:48:58.841Z,100589.88
2022-09-17T23:51:27.785Z,100589.03
2022-09-17T23:53:57.981Z,100580.47
2022-09-17T23:56:27.002Z,100596.00
2022-09-17T23:58:55.624Z,100597.75
